WetterOnline ( https://www.wetteronline.de )

Wetter aktuell Luckenwalde

Aktuelles Wetter: Baruth (55m)

6-stündlich | Neueste Meldungen
Ortszeit Temperatur Wetter
Do, 09.02. 13:00 2.5° C leicht bewölkt
Do, 09.02. 7:00 -6.5° C wolkenlos
Do, 09.02. 1:00 -5.2° C wolkenlos
Mi, 08.02. 19:00 -2.3° C wolkenlos
Mi, 08.02. 13:00 1.0° C wolkenlos
Mi, 08.02. 7:00 -7.8° C wolkenlos
Mi, 08.02. 1:00 -7.6° C wolkenlos
Di, 07.02. 19:00 -3.5° C fast wolkenlos
Ortszeit Temperatur Wetter
Do, 09.02. 13:30 3.3° C leicht bewölkt
Do, 09.02. 13:20 3.3° C leicht bewölkt
Do, 09.02. 13:10 2.5° C leicht bewölkt
Do, 09.02. 13:00 2.5° C leicht bewölkt
Do, 09.02. 12:50 2.5° C leicht bewölkt
Do, 09.02. 12:40 2.5° C bedeckt
Do, 09.02. 12:30 2.8° C leicht bewölkt
Do, 09.02. 12:00 1.9° C fast wolkenlos
Do, 09.02. 11:30 1.3° C wolkig
Do, 09.02. 11:00 0.2° C wolkig
Do, 09.02. 10:30 -0.7° C wolkig
Ortszeit Relative Feuchte Sichtweite
Do, 09.02. 13:00 48% 40 km
Do, 09.02. 7:00 85% 9 km
Do, 09.02. 1:00 86% 21 km
Mi, 08.02. 19:00 78% 20 km
Mi, 08.02. 13:00 67% 19 km
Mi, 08.02. 7:00 92% 11 km
Mi, 08.02. 1:00 93% 16 km
Di, 07.02. 19:00 90% 17 km
Ortszeit Relative Feuchte Sichtweite
Do, 09.02. 13:30 49% 35 km
Do, 09.02. 13:20 49% -
Do, 09.02. 13:10 49% -
Do, 09.02. 13:00 48% 40 km
Do, 09.02. 12:50 48% -
Do, 09.02. 12:40 48% -
Do, 09.02. 12:30 49% 50 km
Do, 09.02. 12:00 51% 40 km
Do, 09.02. 11:30 56% 40 km
Do, 09.02. 11:00 62% 30 km
Do, 09.02. 10:30 64% 35 km
Ortszeit Niederschlagsmenge Niederschlagsart
Do, 09.02. 13:00 0.0 l/m2 in 6 Std. -
Do, 09.02. 7:00 0.0 l/m2 in 12 Std. -
Do, 09.02. 1:00 0.0 l/m2 in 6 Std. -
Mi, 08.02. 19:00 0.0 l/m2 in 12 Std. -
Mi, 08.02. 13:00 0.0 l/m2 in 6 Std. -
Mi, 08.02. 7:00 0.0 l/m2 in 12 Std. -
Mi, 08.02. 1:00 0.0 l/m2 in 6 Std. -
Di, 07.02. 19:00 0.0 l/m2 in 12 Std. -
Ortszeit Niederschlagsmenge Niederschlagsart
Do, 09.02. 13:30 0.0 l/m2 in 30 Min -
Do, 09.02. 13:20 keine Meldung -
Do, 09.02. 13:10 keine Meldung -
Do, 09.02. 13:00 0.0 l/m2 in 1 Std. -
Do, 09.02. 12:50 keine Meldung -
Do, 09.02. 12:40 keine Meldung -
Do, 09.02. 12:30 0.0 l/m2 in 30 Min -
Do, 09.02. 12:00 0.0 l/m2 in 1 Std. -
Do, 09.02. 11:30 0.0 l/m2 in 30 Min -
Do, 09.02. 11:00 0.0 l/m2 in 1 Std. -
Do, 09.02. 10:30 0.0 l/m2 in 30 Min -
Ortszeit Stärke Spitze Richtung
km/h Bft. km/h Grad Sektor
Do, 09.02. 13:00 22 4 40 210° SW
Do, 09.02. 7:00 7 2 25 120° SO
Do, 09.02. 1:00 4 1 18 70° O
Mi, 08.02. 19:00 11 2 30 130° SO
Mi, 08.02. 13:00 17 3 28 130° SO
Mi, 08.02. 7:00 11 2 14 110° O
Mi, 08.02. 1:00 4 1 7 110° O
Di, 07.02. 19:00 2 1 11 200° S
Ortszeit Stärke Spitze Richtung
km/h Bft. km/h Grad Sektor
Do, 09.02. 13:30 14 3 36 200° S
Do, 09.02. 13:20 14 3 - 200° S
Do, 09.02. 13:10 22 4 - 210° SW
Do, 09.02. 13:00 22 4 40 210° SW
Do, 09.02. 12:50 22 4 - 210° SW
Do, 09.02. 12:40 22 4 - 220° SW
Do, 09.02. 12:30 14 3 32 220° SW
Do, 09.02. 12:00 18 3 32 200° S
Do, 09.02. 11:30 20 4 30 190° S
Do, 09.02. 11:00 22 4 31 190° S
Do, 09.02. 10:30 22 4 32 190° S
Ortszeit Untergrenze Bedeckung Gattung
total tief tief mittel hoch
Do, 09.02. 13:00 8700 m 5/8 0/8 - - -
Do, 09.02. 7:00 - 0/8 0/8 - - -
Do, 09.02. 1:00 - 0/8 0/8 - - -
Mi, 08.02. 19:00 - 0/8 0/8 - - -
Mi, 08.02. 13:00 - 0/8 0/8 - - -
Mi, 08.02. 7:00 - 0/8 0/8 - - -
Mi, 08.02. 1:00 - 0/8 0/8 - - -
Di, 07.02. 19:00 3900 m 1/8 1/8 - - -
Ortszeit Bedeckungsgrad in Achtel und Wolkenuntergrenze
Do, 09.02. 13:30 2(9000m) 5(10500m) 6(10500m)
Do, 09.02. 13:20 2(9000m) 5(10500m) 6(10500m)
Do, 09.02. 13:10 4
Do, 09.02. 13:00 4(8700m) 5(9000m)
Do, 09.02. 12:50 4(8700m) 5(9000m)
Do, 09.02. 12:40 8
Do, 09.02. 12:30 5(9000m)
Do, 09.02. 12:00 1(10500m)
Do, 09.02. 11:30 7(10500m) 7(10500m)
Do, 09.02. 11:00 5(10500m) 8(10500m)
Do, 09.02. 10:30 8(10500m)
Ortszeit Luftdruck NN (hPa) Tendenz (hPa in 3 Std.)
Do, 09.02. 13:00 1033 - 1,8
Do, 09.02. 7:00 1035 - 0,9
Do, 09.02. 1:00 1038 - 1,5
Mi, 08.02. 19:00 1041 - 0,8
Mi, 08.02. 13:00 1043 - 0,8
Mi, 08.02. 7:00 1043 0,0
Mi, 08.02. 1:00 1043 - 0,2
Di, 07.02. 19:00 1043 + 0,5
Ortszeit Luftdruck NN (hPa) Tendenz (hPa in 3 Std.)
Do, 09.02. 13:30 1033 - 2,0
Do, 09.02. 13:20 1033 keine Meldung
Do, 09.02. 13:10 1033 keine Meldung
Do, 09.02. 13:00 1033 - 1,8
Do, 09.02. 12:50 1033 keine Meldung
Do, 09.02. 12:40 1033 keine Meldung
Do, 09.02. 12:30 1034 - 1,1
Do, 09.02. 12:00 1034 - 1,1
Do, 09.02. 11:30 1034 - 0,7
Do, 09.02. 11:00 1035 - 0,5
Do, 09.02. 10:30 1035 - 0,3
Ortszeit Schneehöhe (cm)
Do, 09.02. 13:00 -
Do, 09.02. 7:00 1
Do, 09.02. 1:00 1
Mi, 08.02. 19:00 1
Mi, 08.02. 13:00 -
Mi, 08.02. 7:00 1
Mi, 08.02. 1:00 1
Di, 07.02. 19:00 1
Ortszeit Schneehöhe (cm)
Do, 09.02. 13:30 -
Do, 09.02. 13:20 -
Do, 09.02. 13:10 -
Do, 09.02. 13:00 -
Do, 09.02. 12:50 -
Do, 09.02. 12:40 -
Do, 09.02. 12:30 -
Do, 09.02. 12:00 -
Do, 09.02. 11:30 -
Do, 09.02. 11:00 -
Do, 09.02. 10:30 1
Link zu dieser Seite / Seite empfehlen

Das Wetter in ...